createdAt,value
2023-02-12T00:00:08.259Z,7.63
2023-02-12T00:03:01.832Z,8.27
2023-02-12T00:05:29.002Z,8.65
2023-02-12T00:07:55.898Z,10.10
2023-02-12T00:10:23.178Z,9.57
2023-02-12T00:12:50.245Z,8.33
2023-02-12T00:15:17.528Z,9.13
2023-02-12T00:17:44.342Z,8.20
2023-02-12T00:20:11.741Z,7.90
2023-02-12T00:22:38.602Z,11.27
2023-02-12T00:25:05.987Z,9.07
2023-02-12T00:27:33.813Z,8.43
2023-02-12T00:30:00.955Z,9.15
2023-02-12T00:32:27.996Z,10.68
2023-02-12T00:34:55.159Z,8.18
2023-02-12T00:37:21.977Z,8.77
2023-02-12T00:39:49.142Z,7.25
2023-02-12T00:42:15.962Z,10.20
2023-02-12T00:44:43.097Z,8.05
2023-02-12T00:47:10.211Z,9.23
2023-02-12T00:49:37.374Z,7.33
2023-02-12T00:52:05.285Z,8.50
2023-02-12T00:54:32.611Z,9.45
2023-02-12T00:56:59.516Z,8.60
2023-02-12T00:59:30.187Z,8.75
2023-02-12T01:01:57.520Z,7.10
2023-02-12T01:04:24.880Z,9.30
2023-02-12T01:06:51.728Z,7.78
2023-02-12T01:09:19.576Z,8.02
2023-02-12T01:11:48.317Z,7.18
2023-02-12T01:14:16.628Z,6.90
2023-02-12T01:16:43.458Z,6.40
2023-02-12T01:19:12.615Z,6.15
2023-02-12T01:21:39.950Z,6.50
2023-02-12T01:24:07.482Z,5.57
2023-02-12T01:26:34.704Z,5.90
2023-02-12T01:29:04.471Z,5.93
2023-02-12T01:31:36.525Z,6.35
2023-02-12T01:34:05.073Z,5.07
2023-02-12T01:36:34.676Z,5.82
2023-02-12T01:39:03.136Z,5.57
2023-02-12T01:41:35.164Z,5.22
2023-02-12T01:44:11.680Z,6.10
2023-02-12T01:46:39.963Z,5.20
2023-02-12T01:49:12.380Z,5.40
2023-02-12T01:51:40.790Z,5.40
2023-02-12T01:54:10.585Z,5.18
2023-02-12T01:56:38.530Z,4.95
2023-02-12T01:59:05.670Z,4.63
2023-02-12T02:01:34.247Z,4.60
2023-02-12T02:04:05.669Z,6.73
2023-02-12T02:06:47.423Z,5.20
2023-02-12T02:09:17.285Z,5.45
2023-02-12T02:12:03.166Z,4.72
2023-02-12T02:14:33.042Z,5.47
2023-02-12T02:17:31.402Z,5.10
2023-02-12T02:20:01.709Z,4.90
2023-02-12T02:22:39.557Z,5.18
2023-02-12T02:25:35.640Z,4.80
2023-02-12T02:28:15.272Z,4.22
2023-02-12T02:31:03.171Z,4.10
2023-02-12T02:33:39.497Z,4.28
2023-02-12T02:36:26.183Z,4.53
2023-02-12T02:39:01.280Z,5.13
2023-02-12T02:41:36.380Z,4.63
2023-02-12T02:44:32.716Z,5.20
2023-02-12T02:47:02.028Z,4.80
2023-02-12T02:49:39.313Z,4.68
2023-02-12T02:52:16.569Z,6.78
2023-02-12T02:54:47.701Z,7.55
2023-02-12T02:57:19.854Z,9.37
2023-02-12T02:59:53.921Z,7.97
2023-02-12T03:02:25.143Z,6.32
2023-02-12T03:04:57.882Z,5.93
2023-02-12T03:07:33.005Z,4.70
2023-02-12T03:10:08.580Z,5.43
2023-02-12T03:12:48.318Z,4.55
2023-02-12T03:15:23.914Z,5.25
2023-02-12T03:17:51.326Z,4.68
2023-02-12T03:20:20.985Z,4.93
2023-02-12T03:22:53.576Z,4.57
2023-02-12T03:25:27.413Z,4.10
2023-02-12T03:28:04.864Z,4.43
2023-02-12T03:31:13.240Z,4.20
2023-02-12T03:33:59.839Z,4.78
2023-02-12T03:36:45.036Z,4.07
2023-02-12T03:39:20.170Z,4.72
2023-02-12T03:42:05.515Z,4.93
2023-02-12T03:45:02.068Z,7.53
2023-02-12T03:47:41.290Z,5.63
2023-02-12T03:50:19.249Z,4.37
2023-02-12T03:52:49.293Z,4.88
2023-02-12T03:55:16.925Z,4.72
2023-02-12T03:57:52.237Z,4.38
2023-02-12T04:00:22.134Z,5.68
2023-02-12T04:02:50.143Z,7.33
2023-02-12T04:05:35.387Z,6.38
2023-02-12T04:08:05.867Z,5.28
2023-02-12T04:11:07.936Z,5.20
2023-02-12T04:14:18.074Z,5.65
2023-02-12T04:17:04.744Z,6.30
2023-02-12T04:20:26.209Z,6.32
2023-02-12T04:22:53.017Z,5.05
2023-02-12T04:25:39.369Z,4.32
2023-02-12T04:28:51.932Z,8.32
2023-02-12T04:31:31.668Z,5.33
2023-02-12T04:34:07.649Z,5.07
2023-02-12T04:36:41.942Z,4.90
2023-02-12T04:39:12.302Z,5.82
2023-02-12T04:41:39.807Z,6.03
2023-02-12T04:44:18.993Z,6.40
2023-02-12T04:46:46.146Z,6.57
2023-02-12T04:49:16.305Z,9.10
2023-02-12T04:51:44.139Z,9.50
2023-02-12T04:54:11.132Z,11.43
2023-02-12T04:56:38.455Z,8.67
2023-02-12T04:59:05.552Z,8.90
2023-02-12T05:01:37.670Z,9.80
2023-02-12T05:04:06.736Z,8.70
2023-02-12T05:06:38.523Z,8.93
2023-02-12T05:09:07.218Z,8.40
2023-02-12T05:11:34.519Z,6.90
2023-02-12T05:14:01.355Z,10.13
2023-02-12T05:16:28.487Z,8.30
2023-02-12T05:18:55.298Z,8.07
2023-02-12T05:21:22.478Z,8.20
2023-02-12T05:23:49.281Z,7.95
2023-02-12T05:26:19.816Z,7.40
2023-02-12T05:28:46.848Z,7.88
2023-02-12T05:31:21.043Z,9.75
2023-02-12T05:33:49.272Z,7.97
2023-02-12T05:36:18.941Z,7.57
2023-02-12T05:38:46.239Z,7.40
2023-02-12T05:41:16.414Z,12.93
2023-02-12T05:43:44.036Z,12.70
2023-02-12T05:46:11.973Z,11.27
2023-02-12T05:48:39.571Z,10.50
2023-02-12T05:51:15.709Z,13.43
2023-02-12T05:53:43.501Z,8.35
2023-02-12T05:56:19.641Z,8.98
2023-02-12T05:58:49.102Z,7.60
2023-02-12T06:01:19.110Z,7.18
2023-02-12T06:03:45.980Z,7.45
2023-02-12T06:06:13.485Z,6.57
2023-02-12T06:08:40.610Z,6.45
2023-02-12T06:11:11.312Z,5.37
2023-02-12T06:13:38.234Z,5.95
2023-02-12T06:16:05.848Z,6.63
2023-02-12T06:18:35.518Z,6.07
2023-02-12T06:21:05.939Z,5.28
2023-02-12T06:23:32.849Z,6.57
2023-02-12T06:26:00.072Z,5.80
2023-02-12T06:28:27.003Z,5.97
2023-02-12T06:30:54.296Z,5.78
2023-02-12T06:33:21.264Z,9.55
2023-02-12T06:35:48.522Z,6.77
2023-02-12T06:38:15.403Z,6.15
2023-02-12T06:40:42.839Z,5.47
2023-02-12T06:43:09.825Z,6.60
2023-02-12T06:45:36.975Z,7.38
2023-02-12T06:48:03.842Z,9.17
2023-02-12T06:50:31.014Z,12.25
2023-02-12T06:52:59.169Z,14.55
2023-02-12T06:55:26.345Z,16.10
2023-02-12T06:57:53.178Z,14.02
2023-02-12T07:00:21.136Z,18.23
2023-02-12T07:02:53.526Z,20.00
2023-02-12T07:05:20.761Z,17.52
2023-02-12T07:07:47.644Z,18.25
2023-02-12T07:10:14.858Z,20.77
2023-02-12T07:12:41.746Z,21.70
2023-02-12T07:15:09.346Z,18.98
2023-02-12T07:17:36.221Z,19.70
2023-02-12T07:20:04.706Z,18.73
2023-02-12T07:22:31.513Z,16.80
2023-02-12T07:24:58.600Z,18.43
2023-02-12T07:27:25.435Z,19.05
2023-02-12T07:29:52.532Z,17.02
2023-02-12T07:32:19.336Z,15.00
2023-02-12T07:34:47.313Z,16.88
2023-02-12T07:37:14.101Z,14.37
2023-02-12T07:39:41.195Z,14.07
2023-02-12T07:42:08.982Z,14.52
2023-02-12T07:44:36.254Z,15.43
2023-02-12T07:47:03.760Z,12.15
2023-02-12T07:49:30.902Z,12.87
2023-02-12T07:51:57.768Z,13.93
2023-02-12T07:54:25.094Z,12.88
2023-02-12T07:56:52.281Z,14.65
2023-02-12T07:59:20.684Z,14.07
2023-02-12T08:01:52.256Z,12.00
2023-02-12T08:04:21.960Z,13.65
2023-02-12T08:06:51.141Z,12.48
2023-02-12T08:09:21.394Z,13.52
2023-02-12T08:11:48.403Z,11.82
2023-02-12T08:14:18.906Z,11.83
2023-02-12T08:16:47.179Z,11.93
2023-02-12T08:19:20.239Z,11.23
2023-02-12T08:21:53.175Z,11.70
2023-02-12T08:24:22.345Z,8.90
2023-02-12T08:26:49.606Z,9.63
2023-02-12T08:29:20.185Z,9.50
2023-02-12T08:31:49.265Z,9.65
2023-02-12T08:34:31.074Z,9.45
2023-02-12T08:36:59.019Z,8.25
2023-02-12T08:39:28.362Z,9.00
2023-02-12T08:41:57.137Z,9.50
2023-02-12T08:44:24.523Z,8.93
2023-02-12T08:46:52.879Z,8.95
2023-02-12T08:49:28.626Z,9.70
2023-02-12T08:51:57.254Z,9.20
2023-02-12T08:54:27.017Z,9.50
2023-02-12T08:56:58.841Z,9.05
2023-02-12T08:59:26.564Z,9.77
2023-02-12T09:01:53.821Z,9.48
2023-02-12T09:04:26.963Z,10.17
2023-02-12T09:06:53.904Z,9.65
2023-02-12T09:09:21.949Z,8.93
2023-02-12T09:11:49.500Z,9.73
2023-02-12T09:14:18.945Z,8.60
2023-02-12T09:16:46.344Z,8.33
2023-02-12T09:19:15.092Z,8.98
2023-02-12T09:21:42.826Z,9.32
2023-02-12T09:24:10.388Z,8.27
2023-02-12T09:26:37.687Z,8.98
2023-02-12T09:29:04.999Z,8.30
2023-02-12T09:31:32.982Z,8.77
2023-02-12T09:34:02.528Z,8.57
2023-02-12T09:36:30.536Z,7.60
2023-02-12T09:38:59.518Z,9.20
2023-02-12T09:41:38.253Z,7.93
2023-02-12T09:44:18.761Z,8.10
2023-02-12T09:46:51.763Z,8.55
2023-02-12T09:49:57.088Z,9.00
2023-02-12T09:52:27.825Z,8.68
2023-02-12T09:54:56.036Z,9.40
2023-02-12T09:57:36.740Z,8.65
2023-02-12T10:00:15.665Z,7.90
2023-02-12T10:02:42.895Z,9.18
2023-02-12T10:05:20.297Z,9.18
2023-02-12T10:08:01.721Z,8.83
2023-02-12T10:10:46.610Z,10.07
2023-02-12T10:13:27.478Z,10.38
2023-02-12T10:16:10.025Z,9.32
2023-02-12T10:18:57.426Z,9.45
2023-02-12T10:21:34.283Z,10.23
2023-02-12T10:24:28.549Z,10.02
2023-02-12T10:27:00.283Z,10.23
2023-02-12T10:29:32.133Z,11.05
2023-02-12T10:32:05.675Z,10.68
2023-02-12T10:34:35.902Z,10.17
2023-02-12T10:37:26.910Z,10.13
2023-02-12T10:40:03.140Z,9.32
2023-02-12T10:42:39.615Z,9.80
2023-02-12T10:45:14.220Z,10.15
2023-02-12T10:47:41.306Z,9.47
2023-02-12T10:50:28.308Z,9.82
2023-02-12T10:52:58.601Z,10.00
2023-02-12T10:55:35.104Z,9.48
2023-02-12T10:58:04.604Z,9.95
2023-02-12T11:00:37.271Z,10.43
2023-02-12T11:03:13.712Z,10.80
2023-02-12T11:05:43.455Z,10.52
2023-02-12T11:08:33.766Z,9.82
2023-02-12T11:11:07.670Z,9.55
2023-02-12T11:13:36.273Z,9.23
2023-02-12T11:16:03.882Z,9.40
2023-02-12T11:18:33.427Z,9.27
2023-02-12T11:21:04.695Z,7.85
2023-02-12T11:23:34.415Z,9.57
2023-02-12T11:26:05.836Z,8.37
2023-02-12T11:28:37.462Z,9.07
2023-02-12T11:31:14.280Z,7.90
2023-02-12T11:33:41.182Z,7.85
2023-02-12T11:36:26.181Z,7.10
2023-02-12T11:38:56.724Z,8.30
2023-02-12T11:41:41.659Z,7.72
2023-02-12T11:44:17.737Z,7.00
2023-02-12T11:46:56.496Z,7.38
2023-02-12T11:49:28.244Z,7.38
2023-02-12T11:51:57.875Z,7.20
2023-02-12T11:54:27.758Z,8.20
2023-02-12T11:56:55.729Z,8.40
2023-02-12T11:59:44.711Z,7.18
2023-02-12T12:02:11.915Z,8.27
2023-02-12T12:04:40.786Z,8.10
2023-02-12T12:07:32.867Z,7.70
2023-02-12T12:10:05.309Z,8.63
2023-02-12T12:12:48.633Z,7.68
2023-02-12T12:15:38.013Z,8.00
2023-02-12T12:18:52.581Z,7.30
2023-02-12T12:21:42.192Z,7.38
2023-02-12T12:24:20.338Z,8.48
2023-02-12T12:27:00.376Z,7.82
2023-02-12T12:29:51.345Z,7.35
2023-02-12T12:32:21.333Z,7.00
2023-02-12T12:34:48.525Z,7.13
2023-02-12T12:37:36.180Z,6.88
2023-02-12T12:40:37.794Z,6.57
2023-02-12T12:43:19.383Z,7.18
2023-02-12T12:46:19.209Z,6.50
2023-02-12T12:49:17.472Z,5.75
2023-02-12T12:52:20.183Z,6.03
2023-02-12T12:55:18.718Z,6.00
2023-02-12T12:58:01.537Z,6.00
2023-02-12T13:00:58.664Z,6.83
2023-02-12T13:03:53.121Z,6.35
2023-02-12T13:06:23.124Z,5.65
2023-02-12T13:09:09.055Z,6.10
2023-02-12T13:12:01.553Z,5.93
2023-02-12T13:14:56.626Z,5.40
2023-02-12T13:17:46.691Z,5.80
2023-02-12T13:20:40.920Z,5.70
2023-02-12T13:23:18.701Z,5.97
2023-02-12T13:26:05.767Z,5.85
2023-02-12T13:29:13.289Z,6.00
2023-02-12T13:31:55.036Z,6.03
2023-02-12T13:34:28.779Z,6.53
2023-02-12T13:37:00.169Z,6.45
2023-02-12T13:39:34.387Z,6.70
2023-02-12T13:42:07.556Z,6.67
2023-02-12T13:44:53.536Z,6.50
2023-02-12T13:48:03.899Z,6.22
2023-02-12T13:50:55.309Z,6.20
2023-02-12T13:53:46.193Z,6.75
2023-02-12T13:56:27.827Z,6.33
2023-02-12T13:59:00.524Z,7.00
2023-02-12T14:01:37.265Z,6.88
2023-02-12T14:04:52.703Z,6.75
2023-02-12T14:07:21.539Z,6.70
2023-02-12T14:09:51.589Z,6.20
2023-02-12T14:12:24.596Z,6.18
2023-02-12T14:14:56.021Z,6.93
2023-02-12T14:17:29.303Z,7.10
2023-02-12T14:20:23.382Z,6.97
2023-02-12T14:22:50.621Z,6.03
2023-02-12T14:25:25.230Z,7.15
2023-02-12T14:27:55.515Z,6.95
2023-02-12T14:30:40.141Z,6.95
2023-02-12T14:33:07.821Z,7.03
2023-02-12T14:35:46.133Z,7.13
2023-02-12T14:38:16.106Z,7.30
2023-02-12T14:40:48.443Z,7.57
2023-02-12T14:43:58.246Z,7.10
2023-02-12T14:46:25.661Z,7.15
2023-02-12T14:48:57.693Z,6.50
2023-02-12T14:51:51.589Z,7.55
2023-02-12T14:54:31.616Z,7.75
2023-02-12T14:57:04.025Z,8.02
2023-02-12T14:59:37.133Z,7.13
2023-02-12T15:02:06.124Z,8.80
2023-02-12T15:04:37.043Z,7.63
2023-02-12T15:07:10.524Z,7.43
2023-02-12T15:09:45.003Z,8.52
2023-02-12T15:12:21.622Z,9.13
2023-02-12T15:15:01.215Z,7.83
2023-02-12T15:17:34.765Z,8.40
2023-02-12T15:20:10.661Z,7.93
2023-02-12T15:22:41.794Z,8.60
2023-02-12T15:25:17.860Z,7.72
2023-02-12T15:27:49.952Z,7.67
2023-02-12T15:30:25.870Z,8.30
2023-02-12T15:32:56.416Z,7.95
2023-02-12T15:35:27.506Z,8.10
2023-02-12T15:37:57.440Z,8.07
2023-02-12T15:40:25.051Z,6.47
2023-02-12T15:43:05.745Z,8.27
2023-02-12T15:45:35.298Z,8.32
2023-02-12T15:48:09.282Z,7.97
2023-02-12T15:51:01.038Z,7.20
2023-02-12T15:53:30.856Z,7.40
2023-02-12T15:55:59.601Z,6.85
2023-02-12T15:58:39.938Z,8.13
2023-02-12T16:01:07.702Z,7.47
2023-02-12T16:03:38.006Z,7.93
2023-02-12T16:06:11.673Z,6.93
2023-02-12T16:08:44.053Z,8.50
2023-02-12T16:11:19.977Z,8.73
2023-02-12T16:13:50.903Z,8.07
2023-02-12T16:16:23.122Z,9.80
2023-02-12T16:19:25.773Z,9.23
2023-02-12T16:22:10.233Z,8.27
2023-02-12T16:24:40.072Z,9.30
2023-02-12T16:27:25.671Z,9.20
2023-02-12T16:29:56.819Z,8.57
2023-02-12T16:32:42.350Z,8.20
2023-02-12T16:35:11.342Z,8.25
2023-02-12T16:37:38.770Z,8.35
2023-02-12T16:40:15.576Z,9.15
2023-02-12T16:42:46.941Z,8.50
2023-02-12T16:45:27.747Z,8.67
2023-02-12T16:48:05.285Z,9.65
2023-02-12T16:50:35.222Z,8.43
2023-02-12T16:53:05.610Z,9.23
2023-02-12T16:55:33.029Z,8.60
2023-02-12T16:58:01.287Z,8.40
2023-02-12T17:00:31.857Z,9.07
2023-02-12T17:03:01.470Z,8.98
2023-02-12T17:05:30.158Z,8.75
2023-02-12T17:07:57.156Z,9.68
2023-02-12T17:10:24.303Z,10.57
2023-02-12T17:12:52.807Z,9.13
2023-02-12T17:15:30.950Z,9.32
2023-02-12T17:17:59.483Z,9.55
2023-02-12T17:20:27.466Z,10.80
2023-02-12T17:22:57.864Z,11.50
2023-02-12T17:25:25.696Z,10.40
2023-02-12T17:27:53.101Z,10.35
2023-02-12T17:30:24.269Z,12.02
2023-02-12T17:32:51.469Z,10.63
2023-02-12T17:35:18.911Z,9.87
2023-02-12T17:37:49.125Z,11.10
2023-02-12T17:40:17.988Z,10.75
2023-02-12T17:42:46.058Z,11.18
2023-02-12T17:45:16.009Z,11.27
2023-02-12T17:47:43.522Z,11.63
2023-02-12T17:50:14.714Z,11.60
2023-02-12T17:52:42.931Z,12.27
2023-02-12T17:55:15.196Z,12.50
2023-02-12T17:57:42.885Z,11.40
2023-02-12T18:00:14.149Z,10.10
2023-02-12T18:02:41.621Z,12.15
2023-02-12T18:05:09.586Z,11.30
2023-02-12T18:07:37.840Z,11.90
2023-02-12T18:10:07.499Z,11.25
2023-02-12T18:12:35.277Z,11.97
2023-02-12T18:15:06.113Z,11.75
2023-02-12T18:17:43.139Z,13.55
2023-02-12T18:20:14.222Z,13.63
2023-02-12T18:22:41.868Z,11.25
2023-02-12T18:25:13.043Z,11.27
2023-02-12T18:27:45.407Z,11.30
2023-02-12T18:30:14.569Z,12.27
2023-02-12T18:32:44.497Z,12.32
2023-02-12T18:35:12.378Z,12.88
2023-02-12T18:37:43.215Z,13.57
2023-02-12T18:40:12.186Z,14.02
2023-02-12T18:42:40.014Z,12.38
2023-02-12T18:45:09.470Z,13.00
2023-02-12T18:47:49.875Z,11.88
2023-02-12T18:50:18.630Z,12.53
2023-02-12T18:52:48.216Z,14.00
2023-02-12T18:55:16.334Z,14.40
2023-02-12T18:57:43.898Z,14.25
2023-02-12T19:00:12.945Z,12.98
2023-02-12T19:02:40.626Z,14.27
2023-02-12T19:05:10.647Z,14.88
2023-02-12T19:07:39.165Z,12.93
2023-02-12T19:10:11.516Z,13.88
2023-02-12T19:12:39.214Z,14.27
2023-02-12T19:15:09.395Z,13.57
2023-02-12T19:17:37.260Z,13.85
2023-02-12T19:20:06.098Z,13.68
2023-02-12T19:22:36.143Z,14.43
2023-02-12T19:25:04.621Z,12.57
2023-02-12T19:27:35.741Z,15.13
2023-02-12T19:30:08.007Z,12.77
2023-02-12T19:32:38.276Z,13.55
2023-02-12T19:35:07.216Z,13.27
2023-02-12T19:37:35.032Z,13.05
2023-02-12T19:40:05.087Z,14.53
2023-02-12T19:42:34.027Z,13.75
2023-02-12T19:45:01.160Z,14.32
2023-02-12T19:47:27.966Z,14.15
2023-02-12T19:49:58.014Z,13.70
2023-02-12T19:52:25.632Z,15.40
2023-02-12T19:54:53.848Z,13.88
2023-02-12T19:57:22.104Z,12.98
2023-02-12T19:59:50.483Z,14.90
2023-02-12T20:02:18.158Z,15.20
2023-02-12T20:04:47.508Z,14.97
2023-02-12T20:07:15.154Z,16.10
2023-02-12T20:09:43.381Z,13.80
2023-02-12T20:12:12.154Z,16.23
2023-02-12T20:14:40.334Z,14.63
2023-02-12T20:17:09.126Z,14.33
2023-02-12T20:19:36.449Z,14.30
2023-02-12T20:22:06.452Z,14.95
2023-02-12T20:24:35.498Z,14.50
2023-02-12T20:27:03.840Z,15.32
2023-02-12T20:29:33.492Z,14.93
2023-02-12T20:32:01.298Z,15.18
2023-02-12T20:34:28.627Z,16.27
2023-02-12T20:36:56.329Z,14.88
2023-02-12T20:39:26.451Z,15.48
2023-02-12T20:41:54.328Z,15.73
2023-02-12T20:44:23.126Z,14.48
2023-02-12T20:46:55.930Z,13.90
2023-02-12T20:49:26.447Z,16.70
2023-02-12T20:51:54.550Z,15.98
2023-02-12T20:54:23.053Z,16.63
2023-02-12T20:56:53.251Z,15.55
2023-02-12T20:59:21.521Z,15.30
2023-02-12T21:01:53.534Z,16.25
2023-02-12T21:04:21.669Z,17.67
2023-02-12T21:06:49.320Z,16.37
2023-02-12T21:09:19.943Z,15.30
2023-02-12T21:11:47.607Z,15.85
2023-02-12T21:14:24.592Z,15.73
2023-02-12T21:16:56.494Z,13.73
2023-02-12T21:19:27.044Z,16.07
2023-02-12T21:21:54.878Z,14.38
2023-02-12T21:24:26.001Z,14.70
2023-02-12T21:26:54.878Z,15.75
2023-02-12T21:29:23.504Z,14.98
2023-02-12T21:31:53.873Z,16.17
2023-02-12T21:34:24.941Z,16.33
2023-02-12T21:36:55.046Z,15.23
2023-02-12T21:39:27.574Z,14.48
2023-02-12T21:41:58.194Z,16.83
2023-02-12T21:44:27.245Z,15.73
2023-02-12T21:46:55.241Z,15.77
2023-02-12T21:49:27.865Z,13.65
2023-02-12T21:51:58.500Z,17.88
2023-02-12T21:54:26.932Z,16.45
2023-02-12T21:56:54.588Z,15.93
2023-02-12T21:59:22.666Z,17.45
2023-02-12T22:01:52.771Z,15.23
2023-02-12T22:04:20.667Z,14.57
2023-02-12T22:06:49.908Z,13.55
2023-02-12T22:09:20.257Z,12.33
2023-02-12T22:11:47.292Z,14.48
2023-02-12T22:14:16.767Z,13.43
2023-02-12T22:16:43.841Z,13.95
2023-02-12T22:19:11.080Z,16.70
2023-02-12T22:21:40.395Z,14.97
2023-02-12T22:24:09.353Z,13.35
2023-02-12T22:26:36.210Z,14.38
2023-02-12T22:29:08.998Z,14.63
2023-02-12T22:31:39.196Z,14.82
2023-02-12T22:34:10.187Z,14.77
2023-02-12T22:36:38.356Z,15.27
2023-02-12T22:39:05.915Z,14.68
2023-02-12T22:41:32.928Z,16.15
2023-02-12T22:44:01.105Z,18.17
2023-02-12T22:46:28.672Z,15.43
2023-02-12T22:48:56.001Z,14.15
2023-02-12T22:51:28.084Z,12.88
2023-02-12T22:53:56.229Z,13.05
2023-02-12T22:56:24.231Z,16.10
2023-02-12T22:58:56.958Z,14.57
2023-02-12T23:01:24.709Z,15.00
2023-02-12T23:03:52.209Z,15.15
2023-02-12T23:06:21.811Z,14.85
2023-02-12T23:08:51.139Z,14.25
2023-02-12T23:11:19.045Z,13.87
2023-02-12T23:13:46.469Z,13.52
2023-02-12T23:16:13.355Z,14.40
2023-02-12T23:18:40.509Z,14.23
2023-02-12T23:21:07.881Z,13.43
2023-02-12T23:23:35.128Z,12.37
2023-02-12T23:26:02.270Z,14.63
2023-02-12T23:28:31.083Z,12.70
2023-02-12T23:30:58.459Z,13.48
2023-02-12T23:33:26.026Z,15.73
2023-02-12T23:35:52.845Z,14.60
2023-02-12T23:38:20.044Z,15.43
2023-02-12T23:40:47.468Z,12.60
2023-02-12T23:43:14.801Z,13.75
2023-02-12T23:45:44.672Z,13.68
2023-02-12T23:48:12.709Z,15.57
2023-02-12T23:50:40.533Z,13.23
2023-02-12T23:53:10.101Z,14.00
2023-02-12T23:55:37.668Z,13.80
2023-02-12T23:58:06.143Z,16.30
